LFOE 170900Z AUTO 22014KT CAVOK 09/05 Q1016 TEMPO 27025G40KT 4000 -SHRA BKN020TCU

ElémentsDécodage
LFOE Station météo située sur l'aérodrome de EVREUX Fauville
170900Z émis le 17 du mois à 09h00 UTC
AUTO Bulletin édité par un automate
22014KT vent du 220°, 14 noeuds
CAVOK Ceiling And Visibility OK
- Visibilité de 10 Km ou plus
- Pas de nuage au-dessous de 1500m ou au-dessous de l'altitude minimale du secteur la plus élevée (si>1500m) et absence de CB
- pas de temps présent significatif
09/05 température 09°C, point de rosée 05°C
 soit une humidité relative de 76%
Q1016 la pression au niveau de la mer (QNH) est de 1016 hPa
TEMPO fluctuation temporaire prévue
27025G40KT vent du 270°, moyenne: 25 noeuds, avec rafales à 40 noeuds
4000 visibilité horizontale de 4000 mètres
-SHRA faible averse(s) de pluie
BKN020TCU nuages morcelés (5/8 à 7/8) à 2000 pieds
 présence de cumulus congestus